Time;durP1;ratioP1;P1;durP2;ratioP2;P2;SDS_P1;SDS_P2;PMS_P1;PMS_P2;Temp;Humidity;BMP_temperature;BMP_pressure;BME280_temperature;BME280_humidity;BME280_pressure;Samples;Min_cycle;Max_cycle;Signal;HPM_P1;HPM_P2
2022/01/22 00:01:05;;;;;;;30.33;12.02;;;;;;;3.73;92.75;103381.41;5083291;28;20051;-74
2022/01/22 00:03:30;;;;;;;29.13;11.93;;;;;;;3.73;92.36;103379.72;5078894;28;20017;-73
2022/01/22 00:05:55;;;;;;;24.85;11.93;;;;;;;3.74;92.22;103371.25;5087416;28;20024;-74
2022/01/22 00:08:21;;;;;;;25.95;12.63;;;;;;;3.75;92.26;103378.22;5083604;28;20036;-74
2022/01/22 00:10:48;;;;;;;28.33;12.32;;;;;;;3.76;91.98;103368.81;5087161;28;20024;-74
2022/01/22 00:15:46;;;;;;;27.35;12.27;;;;;;;3.77;92.16;103380.94;5087118;28;20024;-74
2022/01/22 00:18:12;;;;;;;27.73;12.80;;;;;;;3.77;92.47;103378.34;5085954;28;20025;-74
2022/01/22 00:20:37;;;;;;;32.13;13.38;;;;;;;3.77;91.99;103370.63;5087055;28;20175;-74
2022/01/22 00:23:04;;;;;;;29.38;14.00;;;;;;;3.76;92.48;103364.53;5086880;28;20122;-74
2022/01/22 00:25:30;;;;;;;28.38;13.27;;;;;;;3.78;92.23;103373.34;5087043;28;20274;-74
2022/01/22 00:27:56;;;;;;;28.42;13.30;;;;;;;3.77;92.05;103368.03;5081983;28;20024;-74
2022/01/22 00:30:24;;;;;;;34.90;13.15;;;;;;;3.78;92.11;103372.41;5084814;28;20028;-74
2022/01/22 00:32:50;;;;;;;24.27;12.55;;;;;;;3.77;92.10;103355.16;5085588;28;20005;-74
2022/01/22 00:35:16;;;;;;;28.52;12.77;;;;;;;3.77;92.04;103352.56;5086768;28;20031;-74
2022/01/22 00:37:45;;;;;;;31.30;12.65;;;;;;;3.76;91.85;103343.91;5085772;28;20019;-77
2022/01/22 00:40:11;;;;;;;27.73;12.80;;;;;;;3.77;92.29;103347.41;5086557;28;20016;-76
2022/01/22 00:42:40;;;;;;;31.05;13.43;;;;;;;3.77;92.23;103350.88;5086397;28;20024;-76
2022/01/22 00:45:05;;;;;;;29.63;12.77;;;;;;;3.76;92.45;103349.06;5086318;28;20044;-76
2022/01/22 00:47:31;;;;;;;27.25;12.30;;;;;;;3.78;92.07;103346.63;5085651;28;20175;-76
2022/01/22 00:49:56;;;;;;;23.08;12.38;;;;;;;3.77;92.45;103344.84;5085859;28;20087;-76
2022/01/22 00:52:21;;;;;;;28.80;11.85;;;;;;;3.78;92.45;103339.81;5086473;28;20032;-76
2022/01/22 00:54:47;;;;;;;26.20;11.25;;;;;;;3.79;92.42;103348.44;5078247;28;20073;-76
2022/01/22 00:57:12;;;;;;;25.58;12.13;;;;;;;3.79;92.15;103353.59;5085280;28;20036;-76
2022/01/22 00:59:37;;;;;;;25.88;12.50;;;;;;;3.79;92.08;103353.59;5085044;28;20259;-76
2022/01/22 01:02:04;;;;;;;24.63;12.27;;;;;;;3.80;92.53;103358.91;5086066;28;20167;-76
2022/01/22 01:04:33;;;;;;;27.55;12.20;;;;;;;3.80;92.22;103363.16;5085572;28;20031;-77
2022/01/22 01:06:58;;;;;;;31.33;12.35;;;;;;;3.81;92.33;103365.00;5098264;28;20035;-76
2022/01/22 01:09:24;;;;;;;25.40;12.18;;;;;;;3.82;92.24;103369.34;5079872;28;20171;-77
2022/01/22 01:11:54;;;;;;;27.90;13.43;;;;;;;3.83;92.30;103371.19;5084437;28;20020;-76
2022/01/22 01:14:30;;;;;;;24.58;12.57;;;;;;;3.83;92.24;103366.03;5092773;28;20032;-76
2022/01/22 01:33:23;;;;;;;33.33;14.13;;;;;;;3.84;92.52;103365.25;5085802;28;20023;-76
2022/01/22 01:35:48;;;;;;;31.60;13.70;;;;;;;3.86;92.66;103360.25;5096752;28;20020;-76
2022/01/22 01:38:14;;;;;;;33.25;14.27;;;;;;;3.85;92.57;103361.91;5084568;28;20028;-76
2022/01/22 01:40:43;;;;;;;33.28;14.70;;;;;;;3.87;92.52;103359.44;5091515;28;20270;-76
2022/01/22 01:43:21;;;;;;;31.60;14.00;;;;;;;3.86;92.66;103365.41;5083724;28;20170;-76
2022/01/22 01:45:46;;;;;;;34.83;14.30;;;;;;;3.86;92.65;103371.44;5085267;28;20110;-76
2022/01/22 01:48:17;;;;;;;36.10;14.57;;;;;;;3.86;92.75;103371.44;5084326;28;20152;-76
2022/01/22 01:50:44;;;;;;;33.17;14.70;;;;;;;3.87;92.67;103369.78;5085110;28;20025;-76
2022/01/22 01:53:16;;;;;;;36.25;14.95;;;;;;;3.86;93.08;103366.28;5085307;28;20016;-76
2022/01/22 01:56:04;;;;;;;33.70;14.52;;;;;;;3.86;92.85;103366.28;5085179;28;20034;-76
2022/01/22 01:58:30;;;;;;;36.28;15.57;;;;;;;3.86;92.82;103371.44;5084337;28;20067;-76
2022/01/22 02:01:00;;;;;;;35.00;15.30;;;;;;;3.88;93.21;103358.69;5084948;28;20034;-76
2022/01/22 02:03:26;;;;;;;32.03;15.70;;;;;;;3.88;93.11;103353.53;5088538;28;20175;-76
2022/01/22 02:05:52;;;;;;;33.92;15.15;;;;;;;3.89;93.10;103361.41;5095672;28;20055;-76
2022/01/22 02:08:18;;;;;;;35.58;16.25;;;;;;;3.89;93.38;103355.38;5085302;28;20271;-76
2022/01/22 02:10:54;;;;;;;38.08;16.25;;;;;;;3.89;93.42;103365.69;5083643;28;20137;-76
2022/01/22 02:13:44;;;;;;;40.45;16.15;;;;;;;3.89;93.76;103356.25;5084316;28;20119;-76
2022/01/22 02:24:51;;;;;;;38.28;16.63;;;;;;;3.88;93.86;103351.88;5080999;28;20030;-76
2022/01/22 02:27:17;;;;;;;43.70;19.42;;;;;;;3.88;94.05;103346.72;5083674;28;20059;-76
2022/01/22 02:29:43;;;;;;;41.53;18.90;;;;;;;3.90;93.94;103352.91;5083836;28;20349;-76
2022/01/22 02:35:09;;;;;;;45.67;18.85;;;;;;;3.90;94.32;103347.75;5075987;28;20370;-77
2022/01/22 02:37:39;;;;;;;48.63;19.35;;;;;;;3.89;94.37;103353.69;5083326;28;20269;-76
2022/01/22 02:40:10;;;;;;;;;;;;;;;3.93;93.94;103355.78;5082430;28;20096;-76
2022/01/22 02:42:35;;;;;;;54.38;19.58;;;;;;;3.90;94.65;103347.75;5084191;28;19959;-76
2022/01/22 02:45:07;;;;;;;49.03;20.02;;;;;;;3.89;94.85;103356.25;5084000;28;20148;-76
2022/01/22 02:47:32;;;;;;;51.25;20.13;;;;;;;3.89;95.02;103350.19;5083946;28;20267;-76
2022/01/22 02:49:58;;;;;;;58.47;21.05;;;;;;;3.88;95.18;103351.88;5083192;28;20031;-76
2022/01/22 02:52:24;;;;;;;48.78;20.08;;;;;;;3.88;95.24;103356.13;5082780;28;20024;-76
2022/01/22 02:54:50;;;;;;;51.67;20.92;;;;;;;3.87;95.63;103351.72;5083027;28;20024;-76
2022/01/22 02:57:15;;;;;;;51.08;21.27;;;;;;;3.87;95.75;103352.66;5084222;28;20028;-76
2022/01/22 02:59:41;;;;;;;54.20;21.83;;;;;;;3.86;95.35;103355.09;5083300;28;20024;-76
2022/01/22 03:02:08;;;;;;;57.13;21.52;;;;;;;3.86;95.73;103360.25;5083904;28;20190;-76
2022/01/22 03:04:33;;;;;;;53.40;20.58;;;;;;;3.85;95.51;103359.31;5087360;28;20314;-76
2022/01/22 03:06:59;;;;;;;55.35;21.98;;;;;;;3.83;95.53;103361.75;5093166;28;20024;-76
2022/01/22 03:09:30;;;;;;;58.13;21.30;;;;;;;3.83;95.54;103356.59;5078583;28;20030;-76
2022/01/22 03:22:17;;;;;;;58.13;21.27;;;;;;;3.86;95.72;103360.25;5083848;28;20118;-76
2022/01/22 03:27:29;;;;;;;52.95;21.95;;;;;;;3.86;95.96;103349.94;5087301;28;20073;-76
2022/01/22 03:29:56;;;;;;;54.97;22.38;;;;;;;3.87;95.86;103365.53;5082939;28;20025;-76
2022/01/22 03:32:23;;;;;;;54.65;21.80;;;;;;;3.87;96.07;103370.69;5083519;28;20291;-76
2022/01/22 03:34:58;;;;;;;58.17;23.27;;;;;;;3.87;95.78;103365.53;5083636;28;20032;-76
2022/01/22 03:37:24;;;;;;;57.22;22.75;;;;;;;3.89;95.98;103363.09;5084851;28;20043;-76
2022/01/22 03:39:50;;;;;;;57.55;23.13;;;;;;;3.90;96.32;103359.75;5089602;28;20323;-77
2022/01/22 03:42:16;;;;;;;60.88;23.40;;;;;;;3.88;96.33;103367.38;5087582;28;20050;-76
2022/01/22 03:44:41;;;;;;;64.68;23.42;;;;;;;3.89;96.29;103360.53;5087569;28;20031;-76
2022/01/22 03:47:06;;;;;;;61.92;23.65;;;;;;;3.90;96.37;103368.41;5087315;28;20079;-76
2022/01/22 03:49:32;;;;;;;63.50;23.85;;;;;;;3.89;96.24;103369.16;5086897;28;20091;-76
2022/01/22 03:51:58;;;;;;;57.70;23.75;;;;;;;3.90;96.52;103373.56;5087299;28;20024;-76
2022/01/22 03:54:23;;;;;;;58.40;24.02;;;;;;;3.90;96.48;103370.09;5088416;28;20039;-76
2022/01/22 03:56:49;;;;;;;59.33;23.58;;;;;;;3.90;96.52;103372.66;5087236;28;20027;-76
2022/01/22 03:59:15;;;;;;;63.25;24.30;;;;;;;3.89;96.90;103366.56;5086440;28;20028;-76
2022/01/22 04:04:25;;;;;;;66.10;25.10;;;;;;;3.93;96.72;103372.94;5095010;28;20090;-76
2022/01/22 04:09:24;;;;;;;65.95;26.55;;;;;;;3.92;96.77;103361.69;5081534;28;20171;-76
2022/01/22 04:11:51;;;;;;;66.40;26.40;;;;;;;3.94;97.03;103360.19;5083549;28;20263;-76
2022/01/22 04:14:24;;;;;;;70.72;26.23;;;;;;;3.94;97.12;103360.19;5097665;27;20035;-76
2022/01/22 04:17:10;;;;;;;69.40;26.92;;;;;;;3.95;97.07;103363.66;5086835;28;20019;-76
2022/01/22 04:25:05;;;;;;;74.43;27.17;;;;;;;3.95;97.21;103354.25;5086353;28;20055;-76
2022/01/22 04:27:31;;;;;;;76.10;27.95;;;;;;;3.96;97.17;103370.63;5086409;28;20020;-76
2022/01/22 04:29:59;;;;;;;71.65;27.27;;;;;;;3.96;97.22;103358.63;5085782;28;20017;-76
2022/01/22 04:32:29;;;;;;;76.82;28.33;;;;;;;3.97;97.55;103360.44;5096095;28;20031;-75
2022/01/22 04:34:54;;;;;;;78.28;28.77;;;;;;;3.96;97.79;103362.91;5090874;28;20020;-76
2022/01/22 04:37:21;;;;;;;78.38;27.95;;;;;;;3.96;97.76;103353.47;5086524;28;20323;-76
2022/01/22 04:39:47;;;;;;;80.38;29.17;;;;;;;3.98;97.28;103361.34;5085758;28;20035;-76
2022/01/22 04:42:14;;;;;;;81.75;29.02;;;;;;;3.99;97.49;103364.06;5093272;28;20270;-76
2022/01/22 04:44:50;;;;;;;75.97;28.65;;;;;;;4.00;97.66;103360.72;5086244;28;20180;-76
2022/01/22 04:47:31;;;;;;;83.65;30.02;;;;;;;4.00;97.68;103363.31;5086120;28;20022;-76
2022/01/22 04:52:44;;;;;;;90.43;30.73;;;;;;;4.03;97.91;103370.44;5086300;28;20087;-76
2022/01/22 04:55:10;;;;;;;79.32;28.98;;;;;;;4.03;97.90;103364.34;5086094;28;20084;-77
2022/01/22 04:57:38;;;;;;;79.45;29.83;;;;;;;4.04;97.96;103368.75;5085885;28;20091;-76
2022/01/22 05:00:10;;;;;;;89.53;30.05;;;;;;;4.04;97.89;103363.59;5085197;28;20095;-76
2022/01/22 05:02:35;;;;;;;83.18;29.55;;;;;;;4.04;98.05;103355.84;5085766;28;20024;-76
2022/01/22 05:05:01;;;;;;;88.43;29.92;;;;;;;4.04;98.20;103366.16;5099637;28;20033;-76
2022/01/22 05:07:27;;;;;;;85.32;30.75;;;;;;;4.04;97.99;103364.50;5086175;28;20039;-76
2022/01/22 05:09:52;;;;;;;97.47;31.13;;;;;;;4.06;97.97;103364.66;5082775;28;20016;-77
2022/01/22 05:12:17;;;;;;;89.43;29.83;;;;;;;4.06;98.16;103367.22;5076514;28;20047;-76
2022/01/22 05:14:43;;;;;;;82.28;30.55;;;;;;;4.05;98.06;103362.81;5085681;28;20067;-76
2022/01/22 05:17:09;;;;;;;84.63;29.15;;;;;;;4.06;98.07;103362.06;5091803;28;20015;-76
2022/01/22 05:19:46;;;;;;;83.90;29.15;;;;;;;4.06;98.14;103360.38;5087793;28;20016;-76
2022/01/22 05:22:35;;;;;;;89.68;29.67;;;;;;;4.07;98.17;103361.28;5076029;28;20052;-76
2022/01/22 05:25:05;;;;;;;84.97;30.83;;;;;;;4.07;98.12;103363.84;5073310;28;20084;-76
2022/01/22 05:30:12;;;;;;;86.15;30.45;;;;;;;4.08;97.84;103358.84;5085391;28;20028;-76
2022/01/22 05:32:59;;;;;;;89.43;29.92;;;;;;;4.09;98.20;103355.50;5085342;28;20021;-75
2022/01/22 05:38:08;;;;;;;97.07;31.63;;;;;;;4.11;98.09;103350.47;5083783;28;20081;-76
2022/01/22 05:40:35;;;;;;;87.07;31.13;;;;;;;4.09;98.08;103352.91;5084634;28;20190;-76
2022/01/22 05:43:00;;;;;;;88.55;29.58;;;;;;;4.11;98.20;103361.72;5084167;28;20016;-76
2022/01/22 05:45:26;;;;;;;92.68;30.63;;;;;;;4.11;98.37;103363.38;5083829;28;20013;-76
2022/01/22 05:47:51;;;;;;;94.30;30.45;;;;;;;4.12;98.45;103360.03;5084349;28;20012;-76
2022/01/22 05:50:29;;;;;;;95.00;32.33;;;;;;;4.12;97.88;103365.19;5080948;28;20021;-76
2022/01/22 05:52:59;;;;;;;87.95;30.30;;;;;;;4.12;98.15;103362.63;5084227;28;20047;-76
2022/01/22 06:00:48;;;;;;;85.88;30.58;;;;;;;4.14;98.72;103358.47;5084065;28;20155;-76
2022/01/22 06:03:13;;;;;;;88.85;30.48;;;;;;;4.14;98.23;103358.47;5093902;28;20166;-76
2022/01/22 06:05:39;;;;;;;86.25;29.90;;;;;;;4.14;98.52;103363.66;5089947;28;20254;-76
2022/01/22 06:08:04;;;;;;;96.13;30.80;;;;;;;4.13;98.33;103367.91;5083984;28;20028;-77
2022/01/22 06:10:32;;;;;;;92.90;30.00;;;;;;;4.15;98.31;103370.63;5079162;28;20048;-77
2022/01/22 06:13:19;;;;;;;89.30;30.33;;;;;;;4.15;98.54;103370.63;5070736;28;20012;-76
2022/01/22 06:15:45;;;;;;;82.05;29.95;;;;;;;4.15;98.55;103371.53;5081054;28;20214;-77
2022/01/22 06:18:10;;;;;;;87.68;29.98;;;;;;;4.16;98.55;103375.94;5083051;28;20340;-77
2022/01/22 06:20:36;;;;;;;89.32;30.40;;;;;;;4.17;98.46;103369.06;5087482;28;20029;-76
2022/01/22 06:23:02;;;;;;;86.53;28.60;;;;;;;4.15;98.62;103366.38;5083937;28;20032;-76
2022/01/22 06:25:28;;;;;;;95.13;31.23;;;;;;;4.16;98.47;103370.75;5084381;28;20040;-77
2022/01/22 06:27:54;;;;;;;87.85;30.63;;;;;;;4.15;98.84;103360.31;5082416;28;20024;-77
2022/01/22 06:30:20;;;;;;;85.93;30.10;;;;;;;4.17;98.76;103361.34;5078647;28;20021;-77
2022/01/22 06:32:45;;;;;;;86.07;28.05;;;;;;;4.18;98.70;103364.06;5083865;28;20152;-76
2022/01/22 06:35:10;;;;;;;92.57;30.00;;;;;;;4.19;98.95;103372.72;5083638;28;20017;-76
2022/01/22 06:37:36;;;;;;;85.18;30.48;;;;;;;4.19;98.97;103372.72;5082838;28;20059;-76
2022/01/22 06:42:30;;;;;;;79.27;28.17;;;;;;;4.21;98.73;103376.34;5084149;28;20167;-76
2022/01/22 06:44:59;;;;;;;85.47;28.42;;;;;;;4.22;98.62;103372.09;5078391;28;20028;-76
2022/01/22 06:47:26;;;;;;;82.47;28.52;;;;;;;4.23;98.74;103385.13;5080671;28;20024;-76
2022/01/22 06:49:52;;;;;;;86.63;29.30;;;;;;;4.23;98.71;103379.06;5083808;28;20114;-76
2022/01/22 06:52:18;;;;;;;86.15;28.75;;;;;;;4.24;98.58;103380.88;5079692;28;20262;-76
2022/01/22 06:54:44;;;;;;;83.28;28.08;;;;;;;4.23;98.82;103385.13;5074740;28;20076;-76
2022/01/22 06:57:10;;;;;;;79.07;27.75;;;;;;;4.25;98.66;103388.75;5079051;28;20267;-76
2022/01/22 06:59:36;;;;;;;81.75;27.67;;;;;;;4.26;98.74;103390.56;5083008;28;20087;-76
2022/01/22 07:02:02;;;;;;;80.85;26.30;;;;;;;4.26;98.71;103385.41;5087534;28;20047;-76
2022/01/22 07:04:29;;;;;;;79.65;25.38;;;;;;;4.27;98.27;103387.25;5084103;28;20027;-76
2022/01/22 07:06:55;;;;;;;70.38;25.60;;;;;;;4.27;98.64;103382.06;5083480;28;20012;-76
2022/01/22 07:09:21;;;;;;;79.45;26.65;;;;;;;4.30;98.45;103391.75;5083295;28;20084;-76
2022/01/22 07:11:46;;;;;;;74.25;26.10;;;;;;;4.29;98.29;103393.44;5083039;28;20052;-76
2022/01/22 07:14:11;;;;;;;78.20;26.00;;;;;;;4.32;98.63;103405.72;5085658;28;20061;-76
2022/01/22 07:16:37;;;;;;;74.45;26.33;;;;;;;4.31;98.35;103407.38;5083543;28;20043;-76
2022/01/22 07:19:02;;;;;;;75.75;26.08;;;;;;;4.31;98.23;103409.06;5082527;28;20017;-76
2022/01/22 07:21:30;;;;;;;76.35;26.13;;;;;;;4.33;98.17;103423.00;5082885;28;20106;-76
2022/01/22 07:26:28;;;;;;;75.38;26.15;;;;;;;4.33;98.29;103428.16;5082962;28;20134;-76
2022/01/22 07:28:53;;;;;;;70.70;25.63;;;;;;;4.34;98.35;103415.41;5083068;28;20025;-76
2022/01/22 07:31:23;;;;;;;69.93;25.98;;;;;;;4.34;98.21;103419.66;5082952;28;20074;-76
2022/01/22 07:33:49;;;;;;;81.47;26.73;;;;;;;4.35;98.40;103430.09;5082299;28;20031;-77
2022/01/22 07:36:14;;;;;;;75.03;26.45;;;;;;;4.35;98.10;103424.94;5081135;28;20025;-76
2022/01/22 07:38:40;;;;;;;75.38;26.58;;;;;;;4.35;98.30;103429.22;5083229;28;20027;-76
2022/01/22 07:41:07;;;;;;;74.18;26.60;;;;;;;4.36;98.33;103428.47;5088312;28;20027;-76
2022/01/22 07:43:33;;;;;;;76.28;27.35;;;;;;;4.38;98.51;103436.34;5082003;28;20084;-76
2022/01/22 07:45:58;;;;;;;78.78;26.45;;;;;;;4.36;98.38;103431.03;5082643;28;20085;-76
2022/01/22 07:48:24;;;;;;;78.63;26.85;;;;;;;4.37;98.71;103440.56;5083314;28;20282;-76
2022/01/22 07:50:49;;;;;;;73.93;26.63;;;;;;;4.38;98.53;103439.81;5079454;28;20123;-76
2022/01/22 07:53:14;;;;;;;79.28;27.83;;;;;;;4.38;98.73;103433.75;5082422;28;20113;-76
2022/01/22 07:55:40;;;;;;;82.18;26.02;;;;;;;4.40;98.77;103439.94;5083079;28;20016;-76
2022/01/22 07:58:06;;;;;;;79.47;26.08;;;;;;;4.39;98.63;103422.63;5082311;28;20179;-76
2022/01/22 08:00:31;;;;;;;73.97;25.10;;;;;;;4.40;98.69;103425.34;5082192;28;20033;-76
2022/01/22 08:02:57;;;;;;;71.03;25.77;;;;;;;4.41;98.59;103423.72;5083218;28;20291;-76
2022/01/22 08:05:22;;;;;;;77.95;27.27;;;;;;;4.42;98.60;103433.22;5082607;28;20304;-76
2022/01/22 08:07:48;;;;;;;87.47;27.33;;;;;;;4.42;98.89;103431.59;5081805;28;20016;-76
2022/01/22 08:10:16;;;;;;;70.32;27.73;;;;;;;4.42;98.85;103428.06;5081905;28;20024;-76
2022/01/22 08:12:42;;;;;;;75.18;26.30;;;;;;;4.43;99.00;103428.25;5080046;28;20013;-76
2022/01/22 08:15:11;;;;;;;78.60;26.45;;;;;;;4.44;99.01;103432.63;5082465;28;20187;-76
2022/01/22 08:17:36;;;;;;;76.70;26.58;;;;;;;4.45;99.35;103424.13;5086145;28;20048;-76
2022/01/22 08:20:02;;;;;;;77.00;27.58;;;;;;;4.46;99.07;103431.09;5078047;28;20017;-76
2022/01/22 08:22:28;;;;;;;71.43;26.33;;;;;;;4.46;98.77;103433.69;5077622;28;20024;-76
2022/01/22 08:24:55;;;;;;;79.90;26.65;;;;;;;4.49;99.29;103427.88;5081619;28;20032;-76
2022/01/22 08:29:46;;;;;;;72.75;25.42;;;;;;;4.50;99.15;103430.59;5080528;28;20141;-76
2022/01/22 08:37:36;;;;;;;63.72;22.50;;;;;;;4.56;99.11;103427.66;5076417;28;20273;-76
2022/01/22 08:40:03;;;;;;;63.95;21.85;;;;;;;4.58;98.80;103431.28;5076896;28;20021;-76
2022/01/22 08:42:28;;;;;;;65.15;23.85;;;;;;;4.60;98.60;103429.72;5077396;28;20228;-76
2022/01/22 08:44:54;;;;;;;66.63;22.95;;;;;;;4.61;98.74;103425.50;5086468;28;20251;-76
2022/01/22 08:47:19;;;;;;;65.70;24.00;;;;;;;4.63;98.84;103424.84;5084880;28;20028;-76
2022/01/22 08:49:45;;;;;;;59.92;23.55;;;;;;;4.64;98.37;103430.94;5072879;28;20017;-76
2022/01/22 08:52:15;;;;;;;58.17;21.95;;;;;;;4.66;98.37;103432.91;5080110;28;20030;-76
2022/01/22 08:54:42;;;;;;;62.97;23.55;;;;;;;4.67;98.46;103426.94;5081424;28;20031;-76
2022/01/22 08:57:08;;;;;;;64.07;22.70;;;;;;;4.70;98.32;103436.63;5085234;28;20025;-78
2022/01/22 08:59:33;;;;;;;59.03;22.23;;;;;;;4.73;98.35;103436.00;5077530;28;20167;-76
2022/01/22 09:01:59;;;;;;;53.15;22.17;;;;;;;4.75;98.26;103439.63;5089564;28;20024;-76
2022/01/22 09:04:24;;;;;;;58.42;20.65;;;;;;;4.74;98.26;103443.91;5079906;28;20021;-76
2022/01/22 09:06:50;;;;;;;63.45;22.83;;;;;;;4.76;97.97;103447.50;5086010;28;20259;-76
2022/01/22 09:09:15;;;;;;;55.35;21.63;;;;;;;4.76;98.22;103455.25;5080187;28;20012;-76
2022/01/22 09:11:43;;;;;;;65.00;23.13;;;;;;;4.77;97.88;103459.66;5077221;28;20088;-76
2022/01/22 09:14:11;;;;;;;55.72;22.13;;;;;;;4.79;97.73;103467.56;5081704;28;20044;-76
2022/01/22 09:16:38;;;;;;;66.50;24.03;;;;;;;4.80;97.80;103470.28;5083785;28;20059;-76
2022/01/22 09:19:10;;;;;;;57.25;21.63;;;;;;;4.82;97.59;103470.41;5083330;28;20016;-76
2022/01/22 09:21:38;;;;;;;56.92;21.58;;;;;;;4.82;97.77;103467.81;5081667;28;20282;-76
2022/01/22 09:24:04;;;;;;;61.03;22.17;;;;;;;4.84;97.75;103479.22;5082397;28;20187;-76
2022/01/22 09:26:30;;;;;;;57.83;22.27;;;;;;;4.85;97.64;103471.59;5085346;28;20330;-76
2022/01/22 09:28:58;;;;;;;54.97;21.63;;;;;;;4.87;97.85;103472.63;5084622;28;20024;-76
2022/01/22 09:31:25;;;;;;;59.22;22.08;;;;;;;4.88;97.88;103463.19;5084599;28;20024;-76
2022/01/22 09:33:50;;;;;;;62.25;23.15;;;;;;;4.89;97.88;103462.44;5084478;28;20028;-76
2022/01/22 09:36:16;;;;;;;60.30;22.83;;;;;;;4.90;97.62;103458.19;5078256;28;20153;-76
2022/01/22 09:38:41;;;;;;;61.60;22.10;;;;;;;4.91;97.79;103468.66;5080815;28;20025;-76
2022/01/22 09:41:07;;;;;;;57.42;21.65;;;;;;;4.93;97.76;103476.53;5083605;28;20302;-76
2022/01/22 09:43:32;;;;;;;59.22;23.02;;;;;;;4.96;97.78;103482.88;5081034;28;20081;-76
2022/01/22 09:45:57;;;;;;;55.80;22.08;;;;;;;4.96;97.75;103493.22;5084585;28;20338;-76
2022/01/22 09:48:23;;;;;;;62.58;23.27;;;;;;;4.98;97.94;103501.09;5084956;28;20062;-77
2022/01/22 09:50:49;;;;;;;55.75;22.67;;;;;;;4.99;97.53;103488.31;5085020;28;20024;-76
2022/01/22 09:53:14;;;;;;;55.97;23.00;;;;;;;5.01;97.40;103491.97;5085004;28;20021;-76
2022/01/22 09:55:40;;;;;;;59.60;23.08;;;;;;;5.02;97.73;103490.28;5087429;28;20255;-76
2022/01/22 09:58:05;;;;;;;57.38;23.30;;;;;;;5.03;97.71;103495.56;5085160;28;20104;-76
2022/01/22 10:00:30;;;;;;;59.97;23.10;;;;;;;5.04;97.50;103488.75;5083340;28;20031;-76
2022/01/22 10:02:57;;;;;;;56.80;23.48;;;;;;;5.08;97.55;103497.66;5092047;28;20083;-76
2022/01/22 10:05:36;;;;;;;59.78;23.33;;;;;;;5.08;97.44;103490.81;5083143;28;20028;-77
2022/01/22 10:08:34;;;;;;;55.85;22.85;;;;;;;5.11;97.84;103497.94;5073035;28;20029;-77
2022/01/22 10:11:00;;;;;;;58.03;23.05;;;;;;;5.13;97.33;103502.47;5080070;28;20016;-77
2022/01/22 10:13:37;;;;;;;58.15;23.42;;;;;;;5.15;97.48;103505.19;5077253;28;20044;-76
2022/01/22 10:16:13;;;;;;;53.30;22.48;;;;;;;5.17;97.39;103503.63;5070802;28;20025;-76
2022/01/22 10:18:38;;;;;;;64.95;23.05;;;;;;;5.19;97.74;103494.34;5081457;28;20324;-78
2022/01/22 10:21:10;;;;;;;62.10;23.73;;;;;;;5.19;97.69;103496.94;5075851;28;20058;-76
2022/01/22 10:23:39;;;;;;;54.85;22.58;;;;;;;5.19;97.23;103502.13;5076566;28;20036;-76
2022/01/22 10:26:08;;;;;;;55.22;22.77;;;;;;;5.21;97.56;103498.91;5080257;28;20254;-76
2022/01/22 10:28:39;;;;;;;57.50;23.77;;;;;;;5.23;97.20;103499.03;5079659;28;20251;-76
2022/01/22 10:31:18;;;;;;;56.10;21.80;;;;;;;5.25;97.58;103494.00;5083965;28;20267;-81
2022/01/22 10:33:43;;;;;;;59.53;22.88;;;;;;;5.29;97.05;103509.00;5082042;28;20036;-78
2022/01/22 10:36:19;;;;;;;54.35;22.30;;;;;;;5.29;97.10;103504.75;5083617;28;20092;-77
2022/01/22 10:38:52;;;;;;;51.25;22.88;;;;;;;5.32;96.94;103502.41;5078614;28;20051;-77
2022/01/22 10:41:32;;;;;;;54.30;22.48;;;;;;;5.31;97.21;103503.19;5084214;28;20028;-77
2022/01/22 10:43:59;;;;;;;52.35;21.42;;;;;;;5.31;96.99;103497.13;5083353;28;20032;-77
2022/01/22 10:46:43;;;;;;;54.45;22.33;;;;;;;5.31;97.33;103495.44;5080050;28;20035;-77
2022/01/22 10:49:13;;;;;;;53.55;21.90;;;;;;;5.33;97.34;103503.31;5066075;28;20164;-77
2022/01/22 10:51:59;;;;;;;53.42;21.35;;;;;;;5.34;97.26;103506.03;5083793;28;20032;-77
2022/01/22 10:54:26;;;;;;;50.03;21.13;;;;;;;5.35;96.98;103509.53;5080608;28;20036;-77
2022/01/22 10:56:53;;;;;;;54.78;22.95;;;;;;;5.36;96.60;103512.25;5092450;28;20008;-77
2022/01/22 10:59:20;;;;;;;56.95;21.45;;;;;;;5.35;96.67;103510.44;5081194;28;20021;-77
2022/01/22 11:01:59;;;;;;;47.92;20.60;;;;;;;5.37;96.66;103508.00;5088693;28;20152;-77
2022/01/22 11:04:34;;;;;;;54.47;21.13;;;;;;;5.39;96.92;103514.22;5073211;28;20036;-77
2022/01/22 11:07:01;;;;;;;50.25;20.85;;;;;;;5.40;96.83;103518.59;5075040;28;20008;-77
2022/01/22 11:09:29;;;;;;;54.60;21.30;;;;;;;5.40;96.76;103513.41;5083626;28;20016;-77
2022/01/22 11:11:56;;;;;;;57.72;21.50;;;;;;;5.40;96.40;103506.59;5086594;28;20029;-77
2022/01/22 11:14:21;;;;;;;62.55;21.92;;;;;;;5.39;96.58;103502.19;5081436;28;20099;-77
2022/01/22 11:16:48;;;;;;;55.38;21.90;;;;;;;5.40;96.70;103498.84;5089366;28;20028;-77
2022/01/22 11:19:20;;;;;;;53.42;20.48;;;;;;;5.43;96.79;103497.28;5083495;28;20091;-77
2022/01/22 11:21:49;;;;;;;53.70;21.50;;;;;;;5.44;96.74;103492.22;5091494;28;20027;-77
2022/01/22 11:24:17;;;;;;;55.10;21.70;;;;;;;5.45;96.84;103480.25;5085302;28;20089;-77
2022/01/22 11:27:03;;;;;;;58.13;22.23;;;;;;;5.45;96.45;103473.38;5083582;28;20004;-77
2022/01/22 11:29:36;;;;;;;56.30;21.25;;;;;;;5.46;96.56;103477.78;5083186;28;20019;-77
2022/01/22 11:32:08;;;;;;;53.72;21.38;;;;;;;5.46;97.00;103484.63;5096857;28;20016;-76
2022/01/22 11:34:36;;;;;;;57.45;22.77;;;;;;;5.46;96.82;103482.97;5071901;28;20035;-77
2022/01/22 11:37:10;;;;;;;57.95;22.67;;;;;;;5.48;96.53;103493.44;5089788;28;20129;-77
2022/01/22 11:39:35;;;;;;;57.78;23.15;;;;;;;5.48;96.75;103486.56;5083647;28;20023;-77
2022/01/22 11:42:01;;;;;;;59.22;22.70;;;;;;;5.50;96.98;103486.69;5081462;28;20016;-77
2022/01/22 11:44:52;;;;;;;60.08;23.60;;;;;;;5.51;96.79;103486.81;5076343;28;20016;-77
2022/01/22 11:47:20;;;;;;;63.92;24.88;;;;;;;5.50;96.61;103482.41;5083592;28;20035;-77
2022/01/22 11:50:21;;;;;;;61.13;24.17;;;;;;;5.54;97.11;103483.59;5083479;28;20260;-77
2022/01/22 11:52:47;;;;;;;64.20;24.90;;;;;;;5.53;96.50;103486.97;5079112;28;20066;-77
2022/01/22 11:55:16;;;;;;;60.38;24.73;;;;;;;5.53;96.64;103487.88;5082800;28;20028;-77
2022/01/22 11:57:44;;;;;;;69.13;25.88;;;;;;;5.55;96.50;103483.75;5083517;28;20289;-77
2022/01/22 12:00:25;;;;;;;65.38;25.45;;;;;;;5.56;96.66;103479.47;5095509;28;20039;-77
2022/01/22 12:03:08;;;;;;;63.00;24.77;;;;;;;5.56;96.34;103482.03;5087326;28;20032;-77
2022/01/22 12:05:54;;;;;;;71.38;24.73;;;;;;;5.58;96.19;103485.69;5086337;28;20073;-77
2022/01/22 12:08:23;;;;;;;67.15;25.15;;;;;;;5.57;96.43;103487.34;5067770;28;20059;-77
2022/01/22 12:16:41;;;;;;;66.78;24.27;;;;;;;5.61;96.26;103480.78;5084256;28;20220;-77
2022/01/22 12:19:49;;;;;;;62.22;23.75;;;;;;;5.62;96.33;103482.59;5080024;28;20152;-77
2022/01/22 12:22:39;;;;;;;69.68;25.05;;;;;;;5.61;96.47;103478.19;5085650;28;20090;-77
2022/01/22 12:25:14;;;;;;;68.38;24.35;;;;;;;5.61;96.14;103479.88;5086207;28;20016;-77
2022/01/22 12:27:47;;;;;;;65.38;23.98;;;;;;;5.60;96.18;103481.53;5085358;28;20020;-77
2022/01/22 12:30:14;;;;;;;66.18;23.65;;;;;;;5.59;96.31;103482.34;5096582;28;20044;-77
2022/01/22 12:32:48;;;;;;;74.53;25.60;;;;;;;5.60;96.48;103486.72;5080381;28;20036;-77
2022/01/22 12:35:31;;;;;;;65.35;24.67;;;;;;;5.59;96.22;103484.94;5084973;28;20223;-78
2022/01/22 12:38:21;;;;;;;67.78;25.40;;;;;;;5.61;96.66;103482.47;5085542;28;20023;-77
2022/01/22 12:40:51;;;;;;;70.45;24.60;;;;;;;5.61;96.11;103485.94;5094193;28;20020;-77
2022/01/22 12:43:26;;;;;;;65.68;25.83;;;;;;;5.61;96.71;103483.38;5084861;28;20020;-77
2022/01/22 12:45:57;;;;;;;60.53;23.50;;;;;;;5.61;96.16;103483.38;5078540;28;20023;-77
2022/01/22 12:48:27;;;;;;;68.55;25.35;;;;;;;5.59;96.17;103479.75;5072177;28;20024;-70
2022/01/22 12:50:52;;;;;;;67.15;25.52;;;;;;;5.61;96.63;103485.06;5080052;28;20024;-67